Time;durP1;ratioP1;P1;durP2;ratioP2;P2;SDS_P1;SDS_P2;PMS_P1;PMS_P2;Temp;Humidity;BMP_temperature;BMP_pressure;BME280_temperature;BME280_humidity;BME280_pressure;Samples;Min_cycle;Max_cycle;Signal;HPM_P1;HPM_P2
2023/07/27 04:02:41;;;;;;;0.60;0.10;;;17.30;30.40;;;;;;5108532;22;20503;-75
2023/07/27 04:05:09;;;;;;;0.60;0.20;;;17.20;32.30;;;;;;5033841;28;20473;-74
2023/07/27 04:07:37;;;;;;;0.60;0.10;;;17.10;32.90;;;;;;5033420;28;20453;-73
2023/07/27 04:10:06;;;;;;;0.60;0.10;;;17.10;37.60;;;;;;5033610;28;20439;-74
2023/07/27 04:12:34;;;;;;;0.60;0.10;;;17.10;41.50;;;;;;5015048;28;20514;-73
2023/07/27 04:15:02;;;;;;;4.33;0.93;;;;;;;;;;5090822;22;20957;-73
2023/07/27 04:17:32;;;;;;;0.80;0.20;;;;;;;;;;5013354;28;20505;-74
2023/07/27 04:20:02;;;;;;;1.10;0.20;;;17.20;45.20;;;;;;5013080;28;20561;-74
2023/07/27 04:22:30;;;;;;;0.60;0.10;;;17.10;45.10;;;;;;5013192;28;20526;-73
2023/07/27 04:24:58;;;;;;;0.60;0.10;;;17.10;51.00;;;;;;5011232;28;20482;-73
2023/07/27 04:27:26;;;;;;;0.60;0.10;;;17.00;54.00;;;;;;5013022;28;20448;-73
2023/07/27 04:29:54;;;;;;;0.60;0.10;;;17.10;60.10;;;;;;5013342;28;20451;-73
2023/07/27 04:32:22;;;;;;;0.60;0.10;;;17.10;64.90;;;;;;5007379;28;20541;-73
2023/07/27 04:34:50;;;;;;;0.60;0.10;;;19.10;71.60;;;;;;5008747;28;20533;-73
2023/07/27 04:37:20;;;;;;;0.60;0.20;;;17.20;72.30;;;;;;5010258;28;20444;-74
2023/07/27 04:39:48;;;;;;;0.60;0.10;;;17.20;72.20;;;;;;5008227;28;20467;-74
2023/07/27 04:42:16;;;;;;;0.70;0.37;;;;;;;;;;5012343;28;20444;-73
2023/07/27 04:44:44;;;;;;;0.60;0.20;;;17.10;75.50;;;;;;5009430;28;21058;-72
2023/07/27 04:47:12;;;;;;;0.60;0.10;;;16.90;80.80;;;;;;5009025;28;20540;-72
2023/07/27 04:49:40;;;;;;;0.70;0.47;;;17.00;85.60;;;;;;5014057;28;20447;-73
2023/07/27 04:52:08;;;;;;;0.60;0.10;;;16.90;86.10;;;;;;5012737;28;20454;-72
2023/07/27 04:54:37;;;;;;;0.60;0.10;;;16.90;89.40;;;;;;5012911;28;20906;-74
2023/07/27 04:57:05;;;;;;;1.37;0.97;;;16.90;90.60;;;;;;5012586;28;20452;-73
2023/07/27 04:59:34;;;;;;;0.70;0.37;;;;;;;;;;5012948;28;20438;-74
2023/07/27 05:02:02;;;;;;;0.60;0.20;;;16.90;93.90;;;;;;5013050;28;20545;-73
2023/07/27 05:04:29;;;;;;;0.60;0.10;;;16.70;96.40;;;;;;5013205;28;20474;-73
2023/07/27 05:06:57;;;;;;;1.80;0.83;;;16.80;99.00;;;;;;5013373;28;20444;-74
2023/07/27 05:09:26;;;;;;;0.60;0.20;;;;;;;;;;5012661;28;20958;-73
2023/07/27 05:11:55;;;;;;;0.60;0.23;;;16.90;99.90;;;;;;5012460;28;20546;-74
2023/07/27 05:14:23;;;;;;;2.83;0.40;;;;;;;;;;5010802;28;20810;-75
2023/07/27 05:16:51;;;;;;;0.60;0.10;;;16.90;99.90;;;;;;5010094;28;20479;-75
2023/07/27 05:19:19;;;;;;;1.13;1.03;;;16.80;99.90;;;;;;5012353;28;20538;-75
2023/07/27 05:21:47;;;;;;;1.00;1.00;;;;;;;;;;5012200;28;20501;-75
2023/07/27 05:24:15;;;;;;;0.60;0.10;;;16.80;99.90;;;;;;5012270;28;20545;-75
2023/07/27 05:26:43;;;;;;;2.20;1.90;;;16.90;99.90;;;;;;5013206;28;20711;-75
2023/07/27 05:29:12;;;;;;;11.53;5.00;;;16.90;99.90;;;;;;5014180;28;20530;-74
2023/07/27 05:31:40;;;;;;;0.60;0.10;;;16.90;99.90;;;;;;5012431;28;20538;-75
2023/07/27 05:34:09;;;;;;;1.13;1.03;;;17.00;99.90;;;;;;5007050;28;20518;-75
2023/07/27 05:36:37;;;;;;;0.60;0.10;;;17.10;99.90;;;;;;5014115;28;20910;-74
2023/07/27 05:39:05;;;;;;;0.60;0.10;;;17.10;99.90;;;;;;5005103;28;20476;-77
2023/07/27 05:41:32;;;;;;;0.60;0.20;;;17.20;99.90;;;;;;5000029;28;20451;-71
2023/07/27 05:44:00;;;;;;;0.60;0.10;;;17.40;99.90;;;;;;5009806;28;20553;-71
2023/07/27 05:46:29;;;;;;;0.60;0.10;;;17.50;99.90;;;;;;5014892;28;20822;-71
2023/07/27 05:48:58;;;;;;;0.70;0.37;;;17.70;99.90;;;;;;5009970;28;20855;-72
2023/07/27 05:51:26;;;;;;;0.60;0.10;;;17.60;99.90;;;;;;5004150;28;20459;-69
2023/07/27 05:53:54;;;;;;;3.23;0.87;;;;;;;;;;5009764;28;20506;-74
2023/07/27 05:56:23;;;;;;;9.67;9.13;;;17.20;99.90;;;;;;5011168;28;20535;-75
2023/07/27 05:58:51;;;;;;;0.60;0.10;;;17.30;99.90;;;;;;5011622;28;20925;-75
2023/07/27 06:01:18;;;;;;;0.60;0.10;;;17.40;99.90;;;;;;5006982;28;20526;-72
2023/07/27 06:03:48;;;;;;;0.60;0.10;;;17.50;99.90;;;;;;5010268;28;20443;-74
2023/07/27 06:06:33;;;;;;;0.60;0.10;;;17.60;99.90;;;;;;5011252;28;20574;-74
2023/07/27 06:09:03;;;;;;;0.60;0.20;;;;;;;;;;5010050;28;20545;-74
2023/07/27 06:11:31;;;;;;;0.60;0.10;;;17.70;99.90;;;;;;5009988;28;21230;-74
2023/07/27 06:13:59;;;;;;;0.60;0.10;;;17.60;99.90;;;;;;5010833;28;20444;-74
2023/07/27 06:16:26;;;;;;;0.60;0.10;;;17.60;99.90;;;;;;5010664;28;20479;-74
2023/07/27 06:18:56;;;;;;;0.60;0.17;;;17.60;99.90;;;;;;5011234;28;20874;-74
2023/07/27 06:21:24;;;;;;;0.60;0.10;;;17.50;99.90;;;;;;5011483;28;20448;-74
2023/07/27 06:23:52;;;;;;;0.60;0.10;;;17.50;99.90;;;;;;5011464;28;20449;-72
2023/07/27 06:26:20;;;;;;;0.70;0.30;;;17.50;99.90;;;;;;5010842;28;20561;-73
2023/07/27 06:28:48;;;;;;;0.60;0.10;;;17.50;99.90;;;;;;5011099;28;20447;-73
2023/07/27 06:31:16;;;;;;;0.60;0.10;;;21.40;99.90;;;;;;5011339;28;20451;-71
2023/07/27 06:33:44;;;;;;;0.60;0.10;;;17.60;99.90;;;;;;5011113;28;20839;-71
2023/07/27 06:36:17;;;;;;;1.60;1.50;;;17.80;99.90;;;;;;5011364;28;20579;-70
2023/07/27 06:38:45;;;;;;;0.60;0.10;;;17.70;99.90;;;;;;5012789;28;20443;-69
2023/07/27 06:41:12;;;;;;;0.60;0.10;;;17.80;99.90;;;;;;5007511;28;20467;-70
2023/07/27 06:43:40;;;;;;;0.60;0.20;;;17.80;99.90;;;;;;5003210;28;20535;-70
2023/07/27 06:46:08;;;;;;;1.17;1.07;;;17.80;99.90;;;;;;4991020;28;20522;-72
2023/07/27 06:48:36;;;;;;;0.60;0.10;;;17.80;99.90;;;;;;5007450;28;20526;-71
2023/07/27 06:51:04;;;;;;;0.60;0.10;;;18.00;99.90;;;;;;5010741;28;20946;-71
2023/07/27 06:53:33;;;;;;;0.60;0.20;;;18.10;99.90;;;;;;5010369;28;20486;-72
2023/07/27 06:56:01;;;;;;;0.87;0.60;;;18.10;99.90;;;;;;5010495;28;20487;-71
2023/07/27 06:58:29;;;;;;;0.60;0.20;;;18.30;99.90;;;;;;5010383;28;20933;-71
2023/07/27 07:00:56;;;;;;;0.60;0.10;;;18.40;99.90;;;;;;5010723;28;20506;-69
2023/07/27 07:03:24;;;;;;;0.70;0.50;;;18.50;99.90;;;;;;5010489;28;20955;-70
2023/07/27 07:05:55;;;;;;;1.13;0.53;;;18.40;99.90;;;;;;5010629;28;20996;-70
2023/07/27 07:08:23;;;;;;;0.60;0.10;;;18.30;99.90;;;;;;5008459;28;20475;-71
2023/07/27 07:10:52;;;;;;;0.70;0.30;;;18.40;99.90;;;;;;4996926;28;20445;-72
2023/07/27 07:13:20;;;;;;;0.60;0.10;;;18.40;99.90;;;;;;5007323;28;20451;-70
2023/07/27 07:15:48;;;;;;;0.80;0.40;;;18.50;99.90;;;;;;5004906;28;20582;-71
2023/07/27 07:18:16;;;;;;;0.60;0.10;;;18.60;99.90;;;;;;5007919;28;20440;-71
2023/07/27 07:20:45;;;;;;;0.60;0.10;;;18.60;99.90;;;;;;5010032;28;20850;-71
2023/07/27 07:23:13;;;;;;;0.60;0.20;;;18.60;99.90;;;;;;5007973;28;20440;-76
2023/07/27 07:25:41;;;;;;;0.90;0.70;;;18.60;99.90;;;;;;5019765;28;20507;-75
2023/07/27 07:28:10;;;;;;;0.60;0.10;;;18.50;99.90;;;;;;5005522;28;20439;-76
2023/07/27 07:30:41;;;;;;;0.60;0.20;;;;;;;;;;5005354;28;20446;-76
2023/07/27 07:33:09;;;;;;;0.60;0.10;;;18.40;99.90;;;;;;5013477;28;20451;-76
2023/07/27 07:35:38;;;;;;;0.60;0.10;;;18.20;99.90;;;;;;5009967;28;20968;-76
2023/07/27 07:38:07;;;;;;;0.60;0.10;;;;;;;;;;5015849;28;20488;-76
2023/07/27 07:40:35;;;;;;;0.60;0.10;;;;;;;;;;5016833;28;20448;-76
2023/07/27 07:43:03;;;;;;;0.87;0.30;;;17.70;99.90;;;;;;5013020;28;20447;-75
2023/07/27 07:45:34;;;;;;;0.60;0.10;;;17.50;99.90;;;;;;5001703;28;20472;-76
2023/07/27 07:48:01;;;;;;;0.60;0.20;;;17.50;99.90;;;;;;5003260;28;20468;-75
2023/07/27 07:50:29;;;;;;;0.60;0.10;;;17.50;99.90;;;;;;4995765;28;20480;-76
2023/07/27 07:52:57;;;;;;;0.60;0.20;;;;;;;;;;4999109;28;20501;-76
2023/07/27 07:55:25;;;;;;;0.60;0.20;;;17.30;99.90;;;;;;5006839;28;20476;-77
2023/07/27 07:57:53;;;;;;;0.60;0.20;;;17.30;99.90;;;;;;5014653;28;20587;-77
2023/07/27 08:00:21;;;;;;;0.93;0.87;;;17.30;99.90;;;;;;5016578;28;20546;-77
2023/07/27 08:02:50;;;;;;;0.60;0.20;;;17.40;99.90;;;;;;5017123;28;20893;-77
2023/07/27 08:05:18;;;;;;;0.60;0.10;;;17.30;99.90;;;;;;5014782;28;20468;-76
2023/07/27 08:07:46;;;;;;;0.60;0.10;;;;;;;;;;5014991;28;20530;-76
2023/07/27 08:10:14;;;;;;;0.60;0.10;;;17.30;99.90;;;;;;5015150;28;20460;-76
2023/07/27 08:12:42;;;;;;;0.83;0.57;;;17.30;99.90;;;;;;4997717;28;20518;-76
2023/07/27 08:15:10;;;;;;;0.60;0.10;;;17.40;99.90;;;;;;4999523;28;20539;-77
2023/07/27 08:17:38;;;;;;;0.60;0.20;;;17.40;99.90;;;;;;4995196;28;20580;-76
2023/07/27 08:20:09;;;;;;;0.70;0.33;;;17.30;99.90;;;;;;5007988;28;20457;-77
2023/07/27 08:22:38;;;;;;;0.70;0.40;;;17.30;99.90;;;;;;5009052;28;20444;-77
2023/07/27 08:25:07;;;;;;;0.60;0.20;;;17.30;99.90;;;;;;5013470;28;20478;-77
2023/07/27 08:27:48;;;;;;;0.60;0.10;;;;;;;;;;5014151;28;20960;-77
2023/07/27 08:30:16;;;;;;;0.60;0.10;;;17.50;99.90;;;;;;5016276;28;20920;-77
2023/07/27 08:32:47;;;;;;;0.60;0.13;;;17.50;99.90;;;;;;5016166;28;20546;-77
2023/07/27 08:35:16;;;;;;;0.60;0.20;;;17.40;99.90;;;;;;5014952;28;20566;-75
2023/07/27 08:37:44;;;;;;;0.60;0.10;;;17.30;99.90;;;;;;5015214;28;20834;-75
2023/07/27 08:40:13;;;;;;;0.60;0.10;;;17.40;99.90;;;;;;5013204;28;20462;-75
2023/07/27 08:42:43;;;;;;;0.60;0.20;;;17.30;99.90;;;;;;5010866;28;20460;-76
2023/07/27 08:45:12;;;;;;;0.60;0.20;;;;;;;;;;5012539;28;20472;-76
2023/07/27 08:47:40;;;;;;;0.70;0.40;;;17.40;99.90;;;;;;5013015;28;20511;-76
2023/07/27 08:50:09;;;;;;;0.60;0.10;;;17.50;99.90;;;;;;5003711;28;20455;-76
2023/07/27 08:52:38;;;;;;;1.73;0.83;;;17.40;99.90;;;;;;5012281;28;20485;-77
2023/07/27 08:55:07;;;;;;;0.60;0.10;;;17.50;99.90;;;;;;5012156;28;20489;-76
2023/07/27 08:57:34;;;;;;;0.60;0.13;;;17.40;99.90;;;;;;5012296;28;20488;-76
2023/07/27 09:00:02;;;;;;;0.60;0.20;;;17.40;99.90;;;;;;5013124;28;20482;-76
2023/07/27 09:02:30;;;;;;;1.13;0.83;;;17.40;99.90;;;;;;5011254;28;20531;-76
2023/07/27 09:04:58;;;;;;;0.60;0.10;;;17.30;99.90;;;;;;5012982;28;20835;-77
2023/07/27 09:07:26;;;;;;;0.60;0.10;;;17.40;99.90;;;;;;5013326;28;20447;-76
2023/07/27 09:09:56;;;;;;;0.90;0.20;;;17.40;99.90;;;;;;5012920;28;20466;-76
2023/07/27 09:12:26;;;;;;;0.60;0.10;;;17.30;99.90;;;;;;5012888;28;20447;-75
2023/07/27 09:14:54;;;;;;;0.70;0.70;;;17.30;99.90;;;;;;5012332;28;20826;-74
2023/07/27 09:17:23;;;;;;;0.80;0.50;;;17.30;99.90;;;;;;5011777;28;20975;-74
2023/07/27 09:19:51;;;;;;;1.03;0.80;;;17.30;99.90;;;;;;5011916;28;20439;-71
2023/07/27 09:22:19;;;;;;;1.47;1.33;;;17.30;99.90;;;;;;5010757;28;20525;-71
2023/07/27 09:24:47;;;;;;;0.60;0.10;;;17.10;99.90;;;;;;5012001;28;20467;-70
2023/07/27 09:27:16;;;;;;;0.60;0.27;;;17.20;99.90;;;;;;5012333;28;20485;-75
2023/07/27 09:29:45;;;;;;;1.53;1.43;;;;;;;;;;5012176;28;20521;-75
2023/07/27 09:32:12;;;;;;;0.60;0.20;;;17.10;99.90;;;;;;5003873;28;20667;-76
2023/07/27 09:34:41;;;;;;;0.60;0.10;;;17.00;99.90;;;;;;5009147;28;20466;-77
2023/07/27 09:37:09;;;;;;;0.90;0.50;;;17.00;99.90;;;;;;5013877;28;20597;-77
2023/07/27 09:39:42;;;;;;;0.90;0.67;;;17.00;99.90;;;;;;5013016;28;20910;-77
2023/07/27 09:42:13;;;;;;;0.60;0.20;;;16.80;99.90;;;;;;5017379;28;20505;-77
2023/07/27 09:44:49;;;;;;;1.47;1.37;;;16.70;99.90;;;;;;5013253;28;20496;-76
2023/07/27 09:47:21;;;;;;;1.90;1.30;;;16.50;99.90;;;;;;5012755;28;20448;-77
2023/07/27 09:49:51;;;;;;;1.63;1.07;;;;;;;;;;5012560;28;20452;-77
2023/07/27 09:52:20;;;;;;;1.10;0.47;;;16.50;99.90;;;;;;5013079;28;20534;-76
2023/07/27 09:54:48;;;;;;;0.80;0.37;;;16.50;99.90;;;;;;5011971;28;21053;-77
2023/07/27 09:57:16;;;;;;;0.60;0.10;;;16.60;99.90;;;;;;5012254;28;20490;-77
2023/07/27 09:59:45;;;;;;;1.00;0.80;;;16.70;99.90;;;;;;5012466;28;20498;-76
2023/07/27 10:02:14;;;;;;;2.40;1.23;;;16.60;99.90;;;;;;5013167;28;20447;-77
2023/07/27 10:04:50;;;;;;;2.60;0.70;;;16.50;99.90;;;;;;5016016;28;20482;-77
2023/07/27 10:07:19;;;;;;;0.93;0.83;;;16.60;99.90;;;;;;5016151;28;20444;-78
2023/07/27 10:09:47;;;;;;;0.70;0.30;;;;;;;;;;5020608;28;20455;-77
2023/07/27 10:12:28;;;;;;;0.77;0.53;;;16.70;99.90;;;;;;5012727;28;20432;-74
2023/07/27 10:15:20;;;;;;;1.67;0.60;;;16.70;99.90;;;;;;5027262;28;20509;-77
2023/07/27 10:17:55;;;;;;;2.97;2.77;;;16.70;99.90;;;;;;5023474;28;20483;-77
2023/07/27 10:20:30;;;;;;;0.93;0.53;;;16.70;99.90;;;;;;5023124;28;20477;-75
2023/07/27 10:23:16;;;;;;;0.90;0.50;;;16.70;99.90;;;;;;5019455;28;20509;-77
2023/07/27 10:26:04;;;;;;;1.33;0.73;;;16.70;99.90;;;;;;5020112;28;20506;-75
2023/07/27 10:28:36;;;;;;;2.30;2.10;;;16.70;99.90;;;;;;5026109;28;20432;-76
2023/07/27 10:31:23;;;;;;;1.07;0.97;;;16.70;99.90;;;;;;5025198;28;20452;-76
2023/07/27 10:33:58;;;;;;;0.60;0.10;;;16.80;99.90;;;;;;5011445;28;20460;-77
2023/07/27 10:36:57;;;;;;;2.40;1.60;;;17.00;99.90;;;;;;5008103;28;20440;-76
2023/07/27 10:39:27;;;;;;;0.60;0.30;;;17.10;99.90;;;;;;5013797;28;20554;-77
2023/07/27 10:42:01;;;;;;;0.60;0.20;;;17.20;99.90;;;;;;5022519;28;20964;-77
2023/07/27 10:44:40;;;;;;;0.60;0.10;;;17.20;99.90;;;;;;5007270;28;20444;-77
2023/07/27 10:47:09;;;;;;;1.33;1.07;;;17.40;99.90;;;;;;5006693;28;20461;-77
2023/07/27 10:49:42;;;;;;;0.70;0.40;;;17.30;99.90;;;;;;5028479;28;20459;-76
2023/07/27 10:52:14;;;;;;;0.73;0.43;;;17.30;99.90;;;;;;5026642;28;20987;-76
2023/07/27 10:54:43;;;;;;;0.60;0.20;;;17.30;99.90;;;;;;5027357;28;20460;-76
2023/07/27 10:57:14;;;;;;;2.50;1.17;;;17.30;99.90;;;;;;5022753;28;20528;-77
2023/07/27 10:59:44;;;;;;;1.13;1.03;;;17.30;99.90;;;;;;5023664;28;20570;-78
2023/07/27 11:02:16;;;;;;;0.60;0.13;;;17.30;99.90;;;;;;5022442;28;20530;-77
2023/07/27 11:04:46;;;;;;;0.80;0.70;;;17.40;99.90;;;;;;5022910;28;20477;-77
2023/07/27 11:07:15;;;;;;;0.70;0.70;;;17.30;99.90;;;;;;5024058;28;20456;-76
2023/07/27 11:09:46;;;;;;;0.70;0.30;;;17.30;99.90;;;;;;5029578;28;20423;-78
2023/07/27 11:12:14;;;;;;;4.73;1.03;;;17.30;99.90;;;;;;5022036;28;20562;-79
2023/07/27 11:14:42;;;;;;;1.10;0.80;;;17.20;99.90;;;;;;5026426;28;20771;-78
2023/07/27 11:17:11;;;;;;;1.37;0.50;;;17.20;99.90;;;;;;5021383;28;20474;-78
2023/07/27 11:19:40;;;;;;;0.60;0.10;;;17.20;99.90;;;;;;5030704;28;20483;-79
2023/07/27 11:22:09;;;;;;;0.60;0.10;;;17.20;99.90;;;;;;5022063;28;20440;-79
2023/07/27 11:24:41;;;;;;;3.07;1.30;;;17.30;99.90;;;;;;5016903;28;20838;-77
2023/07/27 11:27:10;;;;;;;2.83;2.33;;;17.30;99.90;;;;;;5011168;28;20443;-78
2023/07/27 11:29:39;;;;;;;0.67;0.30;;;17.20;99.90;;;;;;5002055;28;20449;-77
2023/07/27 11:32:08;;;;;;;2.60;0.97;;;17.20;99.90;;;;;;5025798;28;20444;-78
2023/07/27 11:34:36;;;;;;;0.60;0.20;;;17.00;99.90;;;;;;5024473;28;20525;-77
2023/07/27 11:37:05;;;;;;;1.23;0.70;;;17.00;99.90;;;;;;5022864;28;20515;-78
2023/07/27 11:39:35;;;;;;;0.80;0.70;;;17.00;99.90;;;;;;5023440;28;20492;-77
2023/07/27 11:42:06;;;;;;;0.60;0.20;;;;;;;;;;5010229;28;20453;-77
2023/07/27 11:44:33;;;;;;;1.10;0.43;;;17.10;1.00;;;;;;5005852;28;21032;-77
2023/07/27 11:47:01;;;;;;;0.60;0.10;;;17.10;1.00;;;;;;5000024;28;20519;-76
2023/07/27 11:49:30;;;;;;;0.60;0.20;;;17.10;1.00;;;;;;4998836;28;20993;-77
2023/07/27 11:51:58;;;;;;;0.60;0.10;;;17.20;1.00;;;;;;5010962;28;20455;-76
2023/07/27 11:54:28;;;;;;;0.97;0.20;;;17.30;1.00;;;;;;5016409;28;20453;-76
2023/07/27 11:56:57;;;;;;;1.20;0.60;;;17.30;1.00;;;;;;5015131;28;20984;-76
2023/07/27 11:59:28;;;;;;;0.60;0.30;;;17.30;1.00;;;;;;5015046;28;20998;-77
2023/07/27 12:01:56;;;;;;;3.70;3.50;;;17.30;99.90;;;;;;5069665;22;20502;-76
2023/07/27 12:04:26;;;;;;;0.93;0.50;;;17.30;1.00;;;;;;5032835;28;20526;-76
2023/07/27 12:06:55;;;;;;;1.17;1.10;;;17.40;1.00;;;;;;5032485;28;20980;-75
2023/07/27 12:09:23;;;;;;;0.60;0.40;;;17.40;1.00;;;;;;5016489;28;20929;-77
2023/07/27 12:11:51;;;;;;;4.37;2.07;;;17.50;99.90;;;;;;5028514;28;20451;-75
2023/07/27 12:14:21;;;;;;;1.53;1.20;;;17.40;99.90;;;;;;5033193;28;20449;-74
2023/07/27 12:16:49;;;;;;;4.10;2.03;;;17.40;1.00;;;;;;5032674;28;20500;-74
2023/07/27 12:19:20;;;;;;;1.33;0.50;;;17.30;1.00;;;;;;5033507;28;21214;-75
2023/07/27 12:21:49;;;;;;;2.03;0.57;;;17.30;1.00;;;;;;5033782;28;20498;-76
2023/07/27 12:24:22;;;;;;;1.40;0.63;;;17.30;1.00;;;;;;5032880;28;20459;-76
2023/07/27 12:26:53;;;;;;;1.13;0.83;;;17.30;1.00;;;;;;5033345;28;20443;-74
2023/07/27 12:29:25;;;;;;;1.10;0.50;;;17.80;1.00;;;;;;5033439;28;20453;-78
2023/07/27 12:31:58;;;;;;;2.53;1.93;;;17.30;1.00;;;;;;5033532;28;20830;-76
2023/07/27 12:34:28;;;;;;;3.60;2.87;;;17.20;1.00;;;;;;5033790;28;20463;-75
2023/07/27 12:36:56;;;;;;;0.60;0.20;;;17.20;1.00;;;;;;5033805;28;20466;-75
2023/07/27 12:39:28;;;;;;;0.70;0.30;;;17.30;1.00;;;;;;5035286;28;20514;-75
2023/07/27 12:41:56;;;;;;;1.00;0.87;;;17.30;1.00;;;;;;5035418;28;20554;-75
2023/07/27 12:44:28;;;;;;;1.77;0.47;;;17.40;1.00;;;;;;5039874;28;20455;-75
2023/07/27 12:46:58;;;;;;;0.60;0.20;;;17.40;1.00;;;;;;5038026;28;20443;-75
2023/07/27 12:49:26;;;;;;;0.60;0.20;;;17.50;1.00;;;;;;5033589;28;20470;-76
2023/07/27 12:51:54;;;;;;;2.00;1.67;;;17.50;1.00;;;;;;5032910;28;20493;-75
2023/07/27 12:54:22;;;;;;;1.43;1.10;;;17.60;1.00;;;;;;5033209;28;20533;-76
2023/07/27 12:56:51;;;;;;;0.80;0.40;;;17.60;1.00;;;;;;5032908;28;20970;-74
2023/07/27 12:59:19;;;;;;;1.83;1.73;;;17.70;1.00;;;;;;5033217;28;20482;-73
2023/07/27 13:01:50;;;;;;;3.23;0.97;;;17.80;1.00;;;;;;5032878;28;20918;-76
2023/07/27 13:04:18;;;;;;;1.90;1.40;;;17.80;1.00;;;;;;5033111;28;20476;-75
2023/07/27 13:06:46;;;;;;;0.60;0.13;;;17.90;1.00;;;;;;5032608;28;20490;-77
2023/07/27 13:09:14;;;;;;;0.60;0.10;;;17.80;1.00;;;;;;5032944;28;20452;-77
2023/07/27 13:11:42;;;;;;;0.60;0.20;;;18.10;1.00;;;;;;5026321;28;20571;-76
2023/07/27 13:14:10;;;;;;;0.60;0.30;;;18.10;1.00;;;;;;5021184;28;20509;-76
2023/07/27 13:16:38;;;;;;;1.73;1.30;;;18.20;1.00;;;;;;5026105;28;20527;-77
2023/07/27 13:19:07;;;;;;;0.73;0.23;;;18.20;1.00;;;;;;5021135;28;20448;-78
2023/07/27 13:21:35;;;;;;;0.80;0.40;;;18.30;1.00;;;;;;5021463;28;20452;-74
2023/07/27 13:24:04;;;;;;;1.03;0.40;;;18.30;1.00;;;;;;5023246;28;20763;-75
2023/07/27 13:26:32;;;;;;;0.80;0.50;;;18.40;1.00;;;;;;5026289;28;20447;-77
2023/07/27 13:29:00;;;;;;;3.27;1.90;;;18.30;1.00;;;;;;5019323;28;20538;-74
2023/07/27 13:31:28;;;;;;;1.37;1.27;;;18.10;1.00;;;;;;5020880;28;20486;-76
2023/07/27 13:33:56;;;;;;;0.70;0.23;;;18.10;1.00;;;;;;5027412;28;20493;-77
2023/07/27 13:36:26;;;;;;;0.70;0.40;;;18.10;1.00;;;;;;5032014;28;20585;-77
2023/07/27 13:38:54;;;;;;;0.80;0.30;;;18.10;1.00;;;;;;5032197;28;20487;-75
2023/07/27 13:41:22;;;;;;;1.60;1.07;;;18.10;1.00;;;;;;5032713;28;20493;-76
2023/07/27 13:43:50;;;;;;;0.60;0.10;;;18.40;1.00;;;;;;5032625;28;20900;-77
2023/07/27 13:46:19;;;;;;;1.30;1.17;;;18.10;1.00;;;;;;5032451;28;20467;-77
2023/07/27 13:48:47;;;;;;;0.60;0.10;;;18.10;1.00;;;;;;5032603;28;20435;-77
2023/07/27 13:51:15;;;;;;;1.07;0.60;;;18.20;1.00;;;;;;5018272;28;20452;-78
2023/07/27 13:53:44;;;;;;;1.10;0.93;;;18.20;1.00;;;;;;5013195;28;21018;-76
2023/07/27 13:56:12;;;;;;;1.00;0.70;;;18.20;1.00;;;;;;5012352;28;20947;-77
2023/07/27 13:58:40;;;;;;;0.80;0.53;;;18.20;1.00;;;;;;5013972;28;20448;-77
2023/07/27 14:01:08;;;;;;;3.13;1.67;;;18.00;1.00;;;;;;5030618;28;21349;-76
2023/07/27 14:03:36;;;;;;;1.30;1.20;;;18.00;1.00;;;;;;5013314;28;20480;-79
2023/07/27 14:06:04;;;;;;;3.20;2.90;;;18.00;1.00;;;;;;5015557;28;20514;-77
2023/07/27 14:08:32;;;;;;;1.17;0.63;;;18.00;1.00;;;;;;5023598;28;20489;-76
2023/07/27 14:11:01;;;;;;;0.60;0.20;;;18.00;1.00;;;;;;5017402;28;20603;-77
2023/07/27 14:13:29;;;;;;;3.13;2.10;;;18.00;1.00;;;;;;5013126;28;20546;-77
2023/07/27 14:15:57;;;;;;;0.70;0.63;;;18.10;1.00;;;;;;5022670;28;20785;-77
2023/07/27 14:18:25;;;;;;;0.60;0.20;;;18.10;1.00;;;;;;5024147;28;20489;-79
2023/07/27 14:20:53;;;;;;;0.60;0.40;;;18.20;1.00;;;;;;5033066;28;20487;-78
2023/07/27 14:23:21;;;;;;;1.00;0.60;;;18.20;1.00;;;;;;5031187;28;20455;-77
2023/07/27 14:25:52;;;;;;;0.60;0.13;;;18.30;1.00;;;;;;5025808;28;20575;-78
2023/07/27 14:28:21;;;;;;;1.10;0.97;;;18.30;1.00;;;;;;5031855;28;20839;-77
2023/07/27 14:30:50;;;;;;;0.93;0.50;;;18.20;1.00;;;;;;5023052;28;20459;-78
2023/07/27 14:33:37;;;;;;;0.60;0.10;;;18.30;1.00;;;;;;5036352;28;20439;-77
2023/07/27 14:36:05;;;;;;;1.40;1.20;;;18.30;1.00;;;;;;5028050;28;20443;-77
2023/07/27 14:38:33;;;;;;;2.30;0.70;;;18.40;1.00;;;;;;5031198;28;20447;-77
2023/07/27 14:41:02;;;;;;;1.30;0.77;;;18.20;1.00;;;;;;5033562;28;20573;-77
2023/07/27 14:43:31;;;;;;;1.33;0.97;;;18.20;1.00;;;;;;5031789;28;20458;-77
2023/07/27 14:45:59;;;;;;;1.20;0.50;;;18.20;1.00;;;;;;5025299;28;20478;-77
2023/07/27 14:48:27;;;;;;;4.20;2.23;;;18.20;1.00;;;;;;5035497;28;20459;-78
2023/07/27 14:50:59;;;;;;;2.00;1.37;;;18.30;1.00;;;;;;5029008;28;20512;-76
2023/07/27 14:53:27;;;;;;;0.70;0.53;;;18.30;1.00;;;;;;5036633;28;20450;-77
2023/07/27 14:55:55;;;;;;;1.43;1.17;;;18.40;1.00;;;;;;5035921;28;20482;-77
2023/07/27 14:58:22;;;;;;;2.60;0.37;;;18.50;1.00;;;;;;5035380;28;20982;-78
2023/07/27 15:00:52;;;;;;;1.60;0.73;;;18.60;1.00;;;;;;5037108;28;20585;-78
2023/07/27 15:03:20;;;;;;;1.07;0.97;;;18.60;1.00;;;;;;5036043;28;20449;-77
2023/07/27 15:05:50;;;;;;;0.70;0.40;;;18.70;1.00;;;;;;5035418;28;20460;-78
2023/07/27 15:08:19;;;;;;;1.20;0.93;;;18.60;1.00;;;;;;5034118;28;20468;-77
2023/07/27 15:10:47;;;;;;;1.77;0.87;;;18.60;1.00;;;;;;5033362;28;20994;-77
2023/07/27 15:13:35;;;;;;;1.53;1.30;;;18.60;1.00;;;;;;5035794;28;20455;-78
2023/07/27 15:16:04;;;;;;;2.03;1.20;;;18.60;1.00;;;;;;5034967;28;20450;-76
2023/07/27 15:18:34;;;;;;;7.37;1.23;;;18.60;1.00;;;;;;5035295;28;20496;-76
2023/07/27 15:21:02;;;;;;;0.60;0.10;;;18.70;1.00;;;;;;5036072;28;20482;-76
2023/07/27 15:23:30;;;;;;;0.90;0.50;;;18.70;1.00;;;;;;5034842;28;20585;-75
2023/07/27 15:25:59;;;;;;;1.87;0.63;;;18.90;1.00;;;;;;5034960;28;20466;-78
2023/07/27 15:28:28;;;;;;;1.40;1.00;;;18.90;1.00;;;;;;5035150;28;20461;-76
2023/07/27 15:30:56;;;;;;;0.70;0.20;;;18.90;1.00;;;;;;5035120;28;20513;-79
2023/07/27 15:33:26;;;;;;;1.13;0.73;;;19.00;1.00;;;;;;5036034;28;20494;-79
2023/07/27 15:35:54;;;;;;;0.70;0.37;;;18.90;1.00;;;;;;5015748;28;20510;-77
2023/07/27 15:38:22;;;;;;;2.80;0.93;;;19.00;1.00;;;;;;5015728;28;20519;-77
2023/07/27 15:40:51;;;;;;;1.37;1.03;;;19.00;1.00;;;;;;5015445;28;20487;-76
2023/07/27 15:43:20;;;;;;;0.97;0.30;;;19.00;1.00;;;;;;5035154;28;20540;-76
2023/07/27 15:45:48;;;;;;;0.60;0.20;;;19.00;1.00;;;;;;5035034;28;20545;-77
2023/07/27 15:48:17;;;;;;;1.40;0.70;;;19.00;1.00;;;;;;5029705;28;20443;-74
2023/07/27 15:50:47;;;;;;;1.40;1.30;;;19.00;1.00;;;;;;5017768;28;20552;-75
2023/07/27 15:53:15;;;;;;;0.70;0.30;;;19.00;1.00;;;;;;5028072;28;20439;-76
2023/07/27 15:55:43;;;;;;;0.60;0.20;;;19.10;1.00;;;;;;5028053;28;20943;-75
2023/07/27 15:58:11;;;;;;;0.70;0.40;;;19.10;1.00;;;;;;5027220;28;20443;-75
2023/07/27 16:00:39;;;;;;;0.60;0.10;;;19.20;1.00;;;;;;5022707;28;20467;-77
2023/07/27 16:03:08;;;;;;;0.80;0.33;;;;;;;;;;5033637;28;20448;-77
2023/07/27 16:05:37;;;;;;;0.60;0.10;;;19.10;1.00;;;;;;5025168;28;20488;-76
2023/07/27 16:08:07;;;;;;;1.30;0.90;;;19.10;1.00;;;;;;5024993;28;20443;-76
2023/07/27 16:10:35;;;;;;;0.93;0.30;;;19.10;1.00;;;;;;5033811;28;20449;-76
2023/07/27 16:13:03;;;;;;;1.13;0.73;;;19.00;1.00;;;;;;5034470;28;20821;-75
2023/07/27 16:15:31;;;;;;;0.80;0.30;;;19.00;1.00;;;;;;5034268;28;20529;-75
2023/07/27 16:17:58;;;;;;;1.13;0.87;;;19.10;1.00;;;;;;5034736;28;20446;-75
2023/07/27 16:20:27;;;;;;;0.80;0.50;;;19.10;1.00;;;;;;5032090;28;20454;-78
2023/07/27 16:22:55;;;;;;;1.20;0.93;;;19.10;1.00;;;;;;5042350;28;20486;-79
2023/07/27 16:25:24;;;;;;;1.73;0.83;;;19.10;1.00;;;;;;5045793;28;20513;-80
2023/07/27 16:27:55;;;;;;;0.60;0.30;;;19.10;1.00;;;;;;5041363;28;20956;-77
2023/07/27 16:30:23;;;;;;;1.83;1.60;;;19.00;1.00;;;;;;5038597;28;20811;-76
2023/07/27 16:33:07;;;;;;;5.73;4.53;;;;;;;;;;5042895;28;20447;-76
2023/07/27 16:35:39;;;;;;;0.77;0.50;;;;;;;;;;5043965;28;20452;-76
2023/07/27 16:38:21;;;;;;;1.20;0.70;;;19.10;1.00;;;;;;5042154;28;20464;-76
2023/07/27 16:40:59;;;;;;;1.43;1.33;;;;;;;;;;5043242;28;20482;-78
2023/07/27 16:43:31;;;;;;;1.10;0.93;;;;;;;;;;5041092;28;20449;-78
2023/07/27 16:46:02;;;;;;;0.70;0.30;;;19.00;1.00;;;;;;5037275;28;20486;-76
2023/07/27 16:48:32;;;;;;;4.00;2.00;;;19.00;1.00;;;;;;5039925;28;20457;-76
2023/07/27 16:51:11;;;;;;;0.83;0.50;;;;;;;;;;5040025;28;20467;-73
2023/07/27 16:53:42;;;;;;;1.23;0.97;;;;;;;;;;5036222;28;20458;-76
2023/07/27 16:56:12;;;;;;;0.70;0.30;;;19.00;1.00;;;;;;5034824;28;20456;-79
2023/07/27 16:58:46;;;;;;;0.80;0.30;;;19.10;1.00;;;;;;5034606;28;20940;-76
2023/07/27 17:01:19;;;;;;;0.60;0.20;;;19.10;1.00;;;;;;5038652;28;20483;-76
2023/07/27 17:03:47;;;;;;;1.90;1.40;;;19.00;1.00;;;;;;5038143;28;20438;-75
2023/07/27 17:06:19;;;;;;;0.80;0.40;;;19.00;1.00;;;;;;5037712;28;20543;-77
2023/07/27 17:08:47;;;;;;;2.83;2.10;;;19.00;1.00;;;;;;5034453;28;20963;-76
2023/07/27 17:11:26;;;;;;;0.80;0.37;;;;;;;;;;5035075;28;20993;-76
2023/07/27 17:13:54;;;;;;;2.37;1.10;;;19.00;1.00;;;;;;5035324;28;20502;-77